Suula — OJKZ — position and weather

sailwx.info

Track history (hours):
 
Tides and Currents Weather Stations Pressure Air Temp Water Temp Dewpoint Dewpoint Depression Visibility Wind Speed Wind Dir Waves Ship Positions

Suula

Last reported at 2014-Oct-25 17:34 UTC. Time now 2014-Oct-25 20:42 UTC.
Position N 59°28' E 021°24'.

Length 140 m; draft 6.5 m.

Type: Tanker. MMSI: 230956996.

Date/timePositionNaut miles runAvg speedWind from/ knotsBaromVisibWave heightAir tempDewpointWater temp
2014-Oct-25 17:34N 59°28' E 021°24'7 0.1
2014-Oct-23 14:18N 59°32' E 021°14'1013.9
2014-Oct-23 13:33N 59°31' E 021°34'5614.0
2014-Oct-23 09:32N 59°40' E 023°24'1414.0
2014-Oct-23 08:33N 59°43' E 023°50'1413.9
2014-Oct-23 07:32N 59°47' E 024°17'21 0.5
2014-Oct-21 15:17N 59°48' E 024°59'811.5
2014-Oct-21 14:33N 59°46' E 024°43'1111.4
2014-Oct-21 13:33N 59°43' E 024°21'1211.4
2014-Oct-21 12:32N 59°40' E 023°59'1111.4
2014-Oct-21 11:33N 59°36' E 023°38'5810.7
2014-Oct-21 06:11N 59°31' E 021°45'711.5
2014-Oct-21 05:33N 59°34' E 021°32'1010.4
2014-Oct-21 04:33N 59°43' E 021°21'1313.2
2014-Oct-21 03:33N 59°54' E 021°35'3 0.1
2014-Oct-20 07:11N 59°56' E 021°39'914.5
2014-Oct-20 06:33N 59°50' E 021°24'1312.9
2014-Oct-20 05:34N 59°38' E 021°21'1313.3
2014-Oct-20 04:33N 59°32' E 021°45'4313.8
2014-Oct-20 01:28N 59°38' E 023°08'1313.8
2014-Oct-20 00:33N 59°41' E 023°33'1413.9
2014-Oct-19 23:32N 59°43' E 024°00'1414.0
2014-Oct-19 22:33N 59°46' E 024°27'1313.3
2014-Oct-19 21:34N 59°38' E 024°48'40 1.0
2014-Oct-18 06:21N 60°10' E 025°36'3713.1
2014-Oct-18 03:33N 59°46' E 024°41'2114.6
2014-Oct-18 02:05N 59°40' E 024°01'814.7
2014-Oct-18 01:33N 59°37' E 023°46'1914.9
2014-Oct-18 00:18N 59°32' E 023°11'4614.3
2014-Oct-17 21:05N 59°29' E 021°40'814.9
2014-Oct-17 20:33N 59°31' E 021°25'  
Track history (hours):
 
Tides and Currents Weather Stations Pressure Air Temp Water Temp Dewpoint Dewpoint Depression Visibility Wind Speed Wind Dir Waves Ship Positions

Suula

Last reported at 2014-Oct-25 17:34 UTC. Time now 2014-Oct-25 20:42 UTC.
Position N 59°28' E 021°24'.

Length 140 m; draft 6.5 m.

Type: Tanker. MMSI: 230956996.

Date/timePositionNaut miles runAvg speedWind from/ knotsBaromVisibWave heightAir tempDewpointWater temp
2014-Oct-25 17:34N 59°28' E 021°24'7 0.1
2014-Oct-23 14:18N 59°32' E 021°14'1013.9
2014-Oct-23 13:33N 59°31' E 021°34'5614.0
2014-Oct-23 09:32N 59°40' E 023°24'1414.0
2014-Oct-23 08:33N 59°43' E 023°50'1413.9
2014-Oct-23 07:32N 59°47' E 024°17'21 0.5
2014-Oct-21 15:17N 59°48' E 024°59'811.5
2014-Oct-21 14:33N 59°46' E 024°43'1111.4
2014-Oct-21 13:33N 59°43' E 024°21'1211.4
2014-Oct-21 12:32N 59°40' E 023°59'1111.4
2014-Oct-21 11:33N 59°36' E 023°38'5810.7
2014-Oct-21 06:11N 59°31' E 021°45'711.5
2014-Oct-21 05:33N 59°34' E 021°32'1010.4
2014-Oct-21 04:33N 59°43' E 021°21'1313.2
2014-Oct-21 03:33N 59°54' E 021°35'3 0.1
2014-Oct-20 07:11N 59°56' E 021°39'914.5
2014-Oct-20 06:33N 59°50' E 021°24'1312.9
2014-Oct-20 05:34N 59°38' E 021°21'1313.3
2014-Oct-20 04:33N 59°32' E 021°45'4313.8
2014-Oct-20 01:28N 59°38' E 023°08'1313.8
2014-Oct-20 00:33N 59°41' E 023°33'1413.9
2014-Oct-19 23:32N 59°43' E 024°00'1414.0
2014-Oct-19 22:33N 59°46' E 024°27'1313.3
2014-Oct-19 21:34N 59°38' E 024°48'40 1.0
2014-Oct-18 06:21N 60°10' E 025°36'3713.1
2014-Oct-18 03:33N 59°46' E 024°41'2114.6
2014-Oct-18 02:05N 59°40' E 024°01'814.7
2014-Oct-18 01:33N 59°37' E 023°46'1914.9
2014-Oct-18 00:18N 59°32' E 023°11'4614.3
2014-Oct-17 21:05N 59°29' E 021°40'814.9
2014-Oct-17 20:33N 59°31' E 021°25'  

Dump ship's entire track history